アピア の空港の天気 - METARとTAF

ファレオロ国際空港(サモア) ( NSFA / APW ) - サモア アピア
飛行場実況気象(Metar)
観測時間09/25 12:00 WSST (09/24 23:00 UTC)
風向・風速北東 4m/s
視程10km以上
天気現象
少しの雲 雲底高度 850m
気温33℃
湿度63%
気圧1011hPa
METARNSFA 242300Z 05008KT 360V110 9999 FEW028 33/25 Q1011 NOSIG
過去の天気等 Google飛行場航空写真 Wunderground天気予報

過去48時間のMETAR

飛行場予報(TAF)
発表時間: 9/25 12:02 WSST (9/24 23:02 UTC)
予報対象時間: 25日13時 WSST ~ 26日13時 WSST
風向・風速北東 5m/s
視程10km以上
少しの雲 雲底高度 760m
TAF NSFA 242302Z 2500/2524 04009KT 9999 FEW025